createdAt,value
2023-02-02T00:01:25.177Z,9.30
2023-02-02T00:03:53.036Z,9.77
2023-02-02T00:06:22.647Z,10.25
2023-02-02T00:08:50.071Z,8.55
2023-02-02T00:11:19.583Z,7.78
2023-02-02T00:13:47.388Z,9.30
2023-02-02T00:16:31.481Z,8.02
2023-02-02T00:19:01.890Z,8.63
2023-02-02T00:21:29.322Z,9.32
2023-02-02T00:23:56.776Z,8.55
2023-02-02T00:26:24.578Z,8.88
2023-02-02T00:28:52.905Z,8.73
2023-02-02T00:31:20.515Z,8.40
2023-02-02T00:33:49.383Z,8.45
2023-02-02T00:36:18.464Z,8.40
2023-02-02T00:41:14.120Z,8.77
2023-02-02T00:43:41.586Z,8.02
2023-02-02T00:46:19.288Z,7.07
2023-02-02T00:48:46.918Z,7.97
2023-02-02T00:51:14.279Z,9.13
2023-02-02T00:53:41.732Z,9.25
2023-02-02T00:56:09.125Z,9.88
2023-02-02T00:58:36.743Z,8.02
2023-02-02T01:01:04.263Z,8.50
2023-02-02T01:03:31.951Z,9.43
2023-02-02T01:05:59.316Z,8.07
2023-02-02T01:08:26.766Z,8.73
2023-02-02T01:10:54.223Z,8.73
2023-02-02T01:13:23.089Z,8.77
2023-02-02T01:15:55.299Z,7.68
2023-02-02T01:18:22.860Z,8.65
2023-02-02T01:21:17.455Z,8.32
2023-02-02T01:23:45.247Z,8.98
2023-02-02T01:26:13.664Z,7.53
2023-02-02T01:28:41.712Z,7.95
2023-02-02T01:31:14.916Z,8.65
2023-02-02T01:33:44.051Z,9.27
2023-02-02T01:36:18.298Z,8.43
2023-02-02T01:38:46.219Z,9.18
2023-02-02T01:41:22.473Z,8.02
2023-02-02T01:43:56.527Z,9.60
2023-02-02T01:46:44.076Z,7.85
2023-02-02T01:49:16.145Z,8.52
2023-02-02T01:51:53.448Z,8.05
2023-02-02T01:54:38.863Z,7.90
2023-02-02T01:57:12.776Z,8.32
2023-02-02T01:59:43.119Z,8.75
2023-02-02T02:02:11.357Z,9.20
2023-02-02T02:04:39.136Z,8.88
2023-02-02T02:07:08.145Z,9.80
2023-02-02T02:09:37.171Z,9.35
2023-02-02T02:12:13.815Z,8.73
2023-02-02T02:15:05.995Z,8.90
2023-02-02T02:17:49.105Z,9.40
2023-02-02T02:20:44.222Z,8.90
2023-02-02T02:24:21.012Z,8.88
2023-02-02T02:27:13.333Z,8.60
2023-02-02T02:30:16.158Z,8.88
2023-02-02T02:33:04.000Z,8.95
2023-02-02T02:36:03.081Z,8.18
2023-02-02T02:38:36.936Z,8.90
2023-02-02T02:41:12.280Z,8.73
2023-02-02T02:43:43.957Z,8.43
2023-02-02T02:46:13.088Z,8.40
2023-02-02T02:48:45.305Z,8.80
2023-02-02T02:51:44.032Z,9.27
2023-02-02T02:57:12.708Z,8.60
2023-02-02T03:00:02.199Z,8.07
2023-02-02T03:02:41.089Z,8.32
2023-02-02T03:05:44.515Z,8.93
2023-02-02T03:08:27.542Z,9.68
2023-02-02T03:10:58.132Z,9.05
2023-02-02T03:13:27.072Z,8.68
2023-02-02T03:15:54.731Z,9.05
2023-02-02T03:18:25.829Z,8.75
2023-02-02T03:20:53.327Z,8.90
2023-02-02T03:23:20.785Z,8.18
2023-02-02T03:25:48.723Z,8.43
2023-02-02T03:28:17.327Z,9.75
2023-02-02T03:30:46.626Z,8.73
2023-02-02T03:33:16.154Z,8.48
2023-02-02T03:35:43.731Z,8.63
2023-02-02T03:38:12.853Z,8.82
2023-02-02T03:40:41.353Z,8.85
2023-02-02T03:43:09.191Z,8.63
2023-02-02T03:45:37.574Z,8.65
2023-02-02T03:48:06.102Z,8.85
2023-02-02T03:53:01.028Z,8.80
2023-02-02T03:55:28.615Z,8.23
2023-02-02T03:57:56.039Z,8.70
2023-02-02T04:00:23.649Z,9.45
2023-02-02T04:02:51.080Z,8.70
2023-02-02T04:05:18.940Z,9.85
2023-02-02T04:07:46.238Z,9.10
2023-02-02T04:10:13.663Z,8.80
2023-02-02T04:12:41.744Z,9.30
2023-02-02T04:15:09.491Z,9.05
2023-02-02T04:17:36.861Z,9.52
2023-02-02T04:20:06.080Z,9.52
2023-02-02T04:22:34.208Z,9.63
2023-02-02T04:25:01.832Z,9.68
2023-02-02T04:27:32.854Z,9.30
2023-02-02T04:30:00.593Z,9.73
2023-02-02T04:32:27.955Z,8.65
2023-02-02T04:34:55.398Z,10.00
2023-02-02T04:37:22.867Z,9.27
2023-02-02T04:39:51.039Z,9.38
2023-02-02T04:42:18.465Z,9.20
2023-02-02T04:44:46.412Z,9.82
2023-02-02T04:47:13.798Z,9.32
2023-02-02T04:49:41.310Z,9.52
2023-02-02T04:52:08.740Z,9.35
2023-02-02T04:54:36.275Z,9.30
2023-02-02T04:57:03.730Z,9.65
2023-02-02T04:59:31.300Z,9.77
2023-02-02T05:02:02.786Z,9.45
2023-02-02T05:04:30.411Z,9.57
2023-02-02T05:06:58.567Z,10.35
2023-02-02T05:09:26.380Z,10.45
2023-02-02T05:11:53.828Z,10.30
2023-02-02T05:14:21.430Z,9.98
2023-02-02T05:16:50.263Z,10.63
2023-02-02T05:19:17.836Z,9.77
2023-02-02T05:21:45.799Z,9.60
2023-02-02T05:24:13.254Z,9.38
2023-02-02T05:26:40.719Z,10.65
2023-02-02T05:29:09.488Z,9.57
2023-02-02T05:34:05.227Z,10.15
2023-02-02T05:36:32.743Z,9.38
2023-02-02T05:39:00.787Z,10.93
2023-02-02T05:41:28.152Z,9.60
2023-02-02T05:43:55.562Z,8.15
2023-02-02T05:46:22.948Z,10.15
2023-02-02T05:48:50.497Z,9.35
2023-02-02T05:51:29.662Z,10.23
2023-02-02T05:53:58.430Z,9.95
2023-02-02T05:56:27.274Z,10.27
2023-02-02T05:58:54.752Z,10.50
2023-02-02T06:01:22.494Z,10.57
2023-02-02T06:03:50.198Z,10.68
2023-02-02T06:06:17.688Z,10.32
2023-02-02T06:08:45.186Z,10.52
2023-02-02T06:11:14.622Z,9.98
2023-02-02T06:13:45.829Z,9.23
2023-02-02T06:16:14.036Z,9.23
2023-02-02T06:18:41.571Z,11.07
2023-02-02T06:21:09.129Z,9.70
2023-02-02T06:23:36.774Z,9.30
2023-02-02T06:26:04.916Z,10.77
2023-02-02T06:28:32.468Z,10.70
2023-02-02T06:31:11.862Z,10.43
2023-02-02T06:33:40.725Z,10.32
2023-02-02T06:36:08.391Z,10.05
2023-02-02T06:38:35.983Z,9.98
2023-02-02T06:41:03.948Z,10.77
2023-02-02T06:43:31.574Z,10.05
2023-02-02T06:45:59.092Z,9.77
2023-02-02T06:48:27.289Z,9.63
2023-02-02T06:50:54.690Z,11.15
2023-02-02T06:53:25.098Z,11.13
2023-02-02T06:55:55.679Z,10.93
2023-02-02T06:58:23.431Z,10.98
2023-02-02T07:00:51.025Z,12.23
2023-02-02T07:03:21.555Z,11.15
2023-02-02T07:05:49.635Z,10.13
2023-02-02T07:08:17.429Z,12.00
2023-02-02T07:11:11.260Z,10.80
2023-02-02T07:13:33.967Z,11.15
2023-02-02T07:16:01.417Z,10.18
2023-02-02T07:18:28.904Z,10.65
2023-02-02T07:20:59.745Z,10.57
2023-02-02T07:23:31.327Z,10.73
2023-02-02T07:26:07.044Z,11.30
2023-02-02T07:28:35.114Z,10.18
2023-02-02T07:31:14.536Z,10.15
2023-02-02T07:33:43.739Z,10.07
2023-02-02T07:36:12.396Z,12.20
2023-02-02T07:38:39.881Z,12.02
2023-02-02T07:41:07.402Z,11.32
2023-02-02T07:43:34.903Z,10.85
2023-02-02T07:46:03.804Z,10.18
2023-02-02T07:48:31.548Z,10.60
2023-02-02T07:51:00.741Z,10.60
2023-02-02T07:53:28.939Z,10.68
2023-02-02T07:56:34.971Z,11.30
2023-02-02T07:59:02.581Z,10.95
2023-02-02T08:01:30.297Z,11.82
2023-02-02T08:04:00.813Z,11.18
2023-02-02T08:06:34.683Z,11.93
2023-02-02T08:09:03.779Z,11.45
2023-02-02T08:11:31.651Z,11.57
2023-02-02T08:14:01.623Z,10.77
2023-02-02T08:16:30.910Z,11.60
2023-02-02T08:18:58.493Z,10.93
2023-02-02T08:21:26.101Z,11.65
2023-02-02T08:23:54.064Z,11.10
2023-02-02T08:26:24.832Z,11.25
2023-02-02T08:28:55.212Z,10.88
2023-02-02T08:31:27.204Z,11.95
2023-02-02T08:33:55.279Z,10.88
2023-02-02T08:36:24.553Z,10.45
2023-02-02T08:38:52.893Z,11.45
2023-02-02T08:41:23.095Z,11.13
2023-02-02T08:43:51.266Z,10.93
2023-02-02T08:46:20.890Z,9.70
2023-02-02T08:48:49.071Z,11.60
2023-02-02T08:51:19.032Z,10.82
2023-02-02T08:53:47.051Z,11.63
2023-02-02T08:56:20.623Z,11.23
2023-02-02T08:58:53.837Z,10.60
2023-02-02T09:01:27.033Z,11.23
2023-02-02T09:03:59.693Z,10.77
2023-02-02T09:06:32.925Z,11.23
2023-02-02T09:09:01.359Z,10.52
2023-02-02T09:11:29.248Z,11.43
2023-02-02T09:13:59.209Z,10.80
2023-02-02T09:16:27.547Z,11.95
2023-02-02T09:18:56.567Z,10.05
2023-02-02T09:21:24.978Z,11.65
2023-02-02T09:26:27.174Z,11.05
2023-02-02T09:29:02.705Z,11.00
2023-02-02T09:31:33.953Z,9.75
2023-02-02T09:34:03.442Z,11.20
2023-02-02T09:36:32.016Z,10.75
2023-02-02T09:38:59.414Z,10.75
2023-02-02T09:41:39.060Z,10.50
2023-02-02T09:44:25.818Z,10.77
2023-02-02T09:47:19.798Z,11.07
2023-02-02T09:49:59.450Z,10.38
2023-02-02T09:52:44.125Z,10.73
2023-02-02T09:55:38.211Z,10.98
2023-02-02T09:58:26.802Z,10.40
2023-02-02T10:01:14.874Z,11.02
2023-02-02T10:04:02.435Z,10.68
2023-02-02T10:06:40.463Z,10.10
2023-02-02T10:09:40.144Z,11.25
2023-02-02T10:12:34.279Z,11.43
2023-02-02T10:18:07.089Z,10.30
2023-02-02T10:20:53.094Z,10.80
2023-02-02T10:23:42.013Z,10.00
2023-02-02T10:26:19.960Z,10.82
2023-02-02T10:29:14.967Z,10.55
2023-02-02T10:31:47.365Z,10.77
2023-02-02T10:34:33.237Z,11.65
2023-02-02T10:37:06.319Z,10.52
2023-02-02T10:39:52.244Z,10.60
2023-02-02T10:42:34.343Z,10.57
2023-02-02T10:45:14.780Z,10.60
2023-02-02T10:47:42.852Z,11.20
2023-02-02T10:50:13.307Z,11.27
2023-02-02T10:53:02.018Z,11.88
2023-02-02T10:55:39.295Z,11.90
2023-02-02T10:58:12.876Z,11.82
2023-02-02T11:01:04.979Z,10.73
2023-02-02T11:03:33.479Z,11.02
2023-02-02T11:08:57.106Z,11.80
2023-02-02T11:11:35.141Z,11.02
2023-02-02T11:14:14.109Z,11.05
2023-02-02T11:16:44.531Z,10.73
2023-02-02T11:19:18.143Z,11.77
2023-02-02T11:21:48.658Z,13.43
2023-02-02T11:24:30.295Z,11.88
2023-02-02T11:27:23.823Z,11.73
2023-02-02T11:29:57.242Z,11.85
2023-02-02T11:32:34.307Z,12.10
2023-02-02T11:35:04.943Z,11.60
2023-02-02T11:37:36.296Z,12.20
2023-02-02T11:40:28.921Z,12.15
2023-02-02T11:42:59.555Z,12.30
2023-02-02T11:45:41.538Z,12.07
2023-02-02T11:48:20.647Z,11.95
2023-02-02T11:50:54.194Z,11.00
2023-02-02T11:53:31.720Z,12.43
2023-02-02T11:56:04.810Z,11.00
2023-02-02T11:58:49.659Z,11.70
2023-02-02T12:01:34.269Z,10.77
2023-02-02T12:04:25.805Z,11.57
2023-02-02T12:06:53.444Z,12.52
2023-02-02T12:09:25.853Z,10.73
2023-02-02T12:12:02.546Z,11.90
2023-02-02T12:14:59.842Z,11.40
2023-02-02T12:17:45.415Z,11.57
2023-02-02T12:20:47.043Z,11.02
2023-02-02T12:23:37.510Z,12.05
2023-02-02T12:26:29.092Z,10.98
2023-02-02T12:29:24.560Z,11.02
2023-02-02T12:32:01.334Z,11.25
2023-02-02T12:34:48.239Z,11.32
2023-02-02T12:37:45.900Z,10.35
2023-02-02T12:40:56.040Z,10.90
2023-02-02T12:43:42.523Z,10.70
2023-02-02T12:46:29.014Z,13.38
2023-02-02T12:49:19.635Z,11.55
2023-02-02T12:51:56.198Z,12.68
2023-02-02T12:54:34.998Z,11.30
2023-02-02T12:57:45.709Z,11.65
2023-02-02T13:00:35.554Z,12.70
2023-02-02T13:03:44.492Z,13.02
2023-02-02T13:06:30.014Z,11.63
2023-02-02T13:09:27.202Z,11.52
2023-02-02T13:12:01.381Z,11.50
2023-02-02T13:14:51.890Z,11.82
2023-02-02T13:17:27.643Z,11.50
2023-02-02T13:20:04.723Z,12.20
2023-02-02T13:22:42.465Z,11.98
2023-02-02T13:25:30.849Z,11.18
2023-02-02T13:28:02.498Z,11.75
2023-02-02T13:30:38.544Z,12.45
2023-02-02T13:33:16.228Z,12.30
2023-02-02T13:35:53.925Z,11.43
2023-02-02T13:38:26.864Z,11.98
2023-02-02T13:40:56.886Z,11.38
2023-02-02T13:44:16.060Z,12.13
2023-02-02T13:46:54.507Z,10.77
2023-02-02T13:49:40.988Z,11.30
2023-02-02T13:52:42.059Z,10.70
2023-02-02T13:55:30.916Z,11.18
2023-02-02T13:58:18.832Z,11.00
2023-02-02T14:00:53.386Z,11.52
2023-02-02T14:03:29.240Z,11.02
2023-02-02T14:06:10.318Z,11.80
2023-02-02T14:08:43.675Z,10.65
2023-02-02T14:11:28.272Z,11.40
2023-02-02T14:14:19.615Z,11.07
2023-02-02T14:16:50.158Z,10.20
2023-02-02T14:19:35.719Z,11.13
2023-02-02T14:22:10.728Z,9.73
2023-02-02T14:27:08.951Z,10.35
2023-02-02T14:29:39.682Z,11.27
2023-02-02T14:32:07.237Z,10.25
2023-02-02T14:34:45.179Z,11.05
2023-02-02T14:37:24.807Z,9.27
2023-02-02T14:40:07.553Z,10.10
2023-02-02T14:43:41.616Z,9.93
2023-02-02T14:46:14.847Z,9.02
2023-02-02T14:48:44.520Z,9.80
2023-02-02T14:51:33.378Z,10.02
2023-02-02T14:54:05.299Z,9.52
2023-02-02T14:56:38.727Z,9.40
2023-02-02T14:59:08.020Z,9.57
2023-02-02T15:01:39.111Z,9.38
2023-02-02T15:04:22.043Z,10.35
2023-02-02T15:06:53.099Z,9.23
2023-02-02T15:09:20.563Z,9.93
2023-02-02T15:12:03.173Z,9.38
2023-02-02T15:15:04.498Z,8.75
2023-02-02T15:17:48.983Z,9.80
2023-02-02T15:20:37.273Z,9.40
2023-02-02T15:23:17.687Z,8.15
2023-02-02T15:25:54.400Z,8.30
2023-02-02T15:28:52.662Z,8.68
2023-02-02T15:31:29.085Z,8.20
2023-02-02T15:34:01.561Z,8.63
2023-02-02T15:36:35.967Z,9.50
2023-02-02T15:39:29.029Z,7.47
2023-02-02T15:42:17.512Z,8.75
2023-02-02T15:44:46.023Z,8.65
2023-02-02T15:47:18.628Z,8.77
2023-02-02T15:49:46.556Z,8.82
2023-02-02T15:52:17.461Z,8.57
2023-02-02T15:54:52.074Z,8.38
2023-02-02T15:57:38.507Z,8.80
2023-02-02T16:00:26.453Z,9.07
2023-02-02T16:03:05.072Z,8.45
2023-02-02T16:05:32.432Z,7.43
2023-02-02T16:08:05.953Z,8.10
2023-02-02T16:10:35.752Z,8.38
2023-02-02T16:13:04.002Z,8.32
2023-02-02T16:15:33.053Z,7.95
2023-02-02T16:18:02.709Z,9.02
2023-02-02T16:20:33.627Z,8.18
2023-02-02T16:23:06.298Z,8.00
2023-02-02T16:25:44.985Z,8.63
2023-02-02T16:28:18.848Z,7.93
2023-02-02T16:30:46.562Z,8.00
2023-02-02T16:33:33.859Z,8.23
2023-02-02T16:36:04.352Z,8.43
2023-02-02T16:38:37.592Z,8.65
2023-02-02T16:41:13.817Z,8.23
2023-02-02T16:43:42.858Z,7.60
2023-02-02T16:46:15.551Z,8.02
2023-02-02T16:48:57.443Z,8.13
2023-02-02T16:51:30.781Z,7.90
2023-02-02T16:54:14.509Z,9.07
2023-02-02T16:56:45.419Z,8.18
2023-02-02T16:59:15.743Z,7.50
2023-02-02T17:01:51.176Z,7.95
2023-02-02T17:04:34.415Z,8.00
2023-02-02T17:07:13.592Z,8.25
2023-02-02T17:09:43.664Z,8.25
2023-02-02T17:12:32.182Z,8.23
2023-02-02T17:15:34.477Z,7.53
2023-02-02T17:18:04.380Z,7.97
2023-02-02T17:20:34.788Z,8.40
2023-02-02T17:23:07.111Z,8.55
2023-02-02T17:25:42.881Z,7.85
2023-02-02T17:28:12.775Z,7.80
2023-02-02T17:30:42.158Z,8.30
2023-02-02T17:33:17.582Z,8.15
2023-02-02T17:35:56.084Z,9.70
2023-02-02T17:38:25.207Z,8.07
2023-02-02T17:40:53.658Z,8.88
2023-02-02T17:43:21.699Z,8.27
2023-02-02T17:45:49.583Z,9.15
2023-02-02T17:48:17.404Z,8.40
2023-02-02T17:50:45.602Z,10.85
2023-02-02T17:53:18.772Z,8.90
2023-02-02T17:55:47.773Z,8.70
2023-02-02T17:58:17.778Z,9.10
2023-02-02T18:00:53.465Z,8.82
2023-02-02T18:03:27.988Z,9.38
2023-02-02T18:05:57.869Z,9.30
2023-02-02T18:08:25.486Z,8.68
2023-02-02T18:10:52.850Z,8.68
2023-02-02T18:13:22.487Z,9.15
2023-02-02T18:15:51.030Z,8.35
2023-02-02T18:20:48.316Z,8.98
2023-02-02T18:23:17.453Z,8.55
2023-02-02T18:25:44.991Z,8.68
2023-02-02T18:28:16.588Z,8.52
2023-02-02T18:30:45.043Z,8.52
2023-02-02T18:33:13.885Z,9.15
2023-02-02T18:35:42.801Z,9.00
2023-02-02T18:38:10.743Z,9.20
2023-02-02T18:40:38.657Z,9.32
2023-02-02T18:43:06.504Z,8.40
2023-02-02T18:45:33.974Z,10.23
2023-02-02T18:48:01.358Z,9.25
2023-02-02T18:50:28.953Z,10.02
2023-02-02T18:52:57.024Z,9.20
2023-02-02T18:55:24.812Z,9.85
2023-02-02T18:57:52.955Z,10.38
2023-02-02T19:00:22.279Z,10.98
2023-02-02T19:02:49.680Z,10.68
2023-02-02T19:05:36.026Z,9.80
2023-02-02T19:08:04.277Z,9.93
2023-02-02T19:10:31.865Z,9.85
2023-02-02T19:13:14.471Z,10.20
2023-02-02T19:15:42.654Z,10.20
2023-02-02T19:18:24.717Z,10.20
2023-02-02T19:20:53.295Z,10.00
2023-02-02T19:23:23.863Z,10.77
2023-02-02T19:25:56.822Z,9.73
2023-02-02T19:28:30.030Z,10.20
2023-02-02T19:31:00.454Z,10.65
2023-02-02T19:33:43.858Z,10.95
2023-02-02T19:36:20.070Z,10.38
2023-02-02T19:38:48.956Z,11.07
2023-02-02T19:41:25.424Z,9.75
2023-02-02T19:43:58.794Z,10.88
2023-02-02T19:46:28.265Z,9.77
2023-02-02T19:49:13.699Z,10.60
2023-02-02T19:51:45.823Z,9.98
2023-02-02T19:54:24.779Z,10.85
2023-02-02T19:57:10.905Z,10.65
2023-02-02T19:59:38.442Z,9.95
2023-02-02T20:02:42.061Z,10.52
2023-02-02T20:05:12.948Z,11.13
2023-02-02T20:07:40.455Z,10.65
2023-02-02T20:10:19.396Z,11.05
2023-02-02T20:12:47.023Z,9.95
2023-02-02T20:15:35.045Z,10.73
2023-02-02T20:18:11.177Z,10.82
2023-02-02T20:20:41.073Z,10.90
2023-02-02T20:23:43.067Z,10.98
2023-02-02T20:26:21.000Z,10.77
2023-02-02T20:28:49.444Z,10.57
2023-02-02T20:33:57.968Z,11.27
2023-02-02T20:36:39.667Z,11.38
2023-02-02T20:39:16.286Z,11.85
2023-02-02T20:41:44.161Z,12.82
2023-02-02T20:44:12.214Z,11.23
2023-02-02T20:46:39.846Z,11.40
2023-02-02T20:49:07.463Z,12.65
2023-02-02T20:51:35.139Z,12.35
2023-02-02T20:54:02.701Z,13.10
2023-02-02T20:56:30.181Z,12.88
2023-02-02T20:58:57.566Z,13.43
2023-02-02T21:01:26.454Z,14.05
2023-02-02T21:03:54.003Z,13.70
2023-02-02T21:06:21.479Z,12.40
2023-02-02T21:08:52.663Z,12.25
2023-02-02T21:11:20.455Z,13.38
2023-02-02T21:13:48.668Z,12.75
2023-02-02T21:16:16.467Z,12.85
2023-02-02T21:18:47.405Z,12.82
2023-02-02T21:21:16.612Z,13.82
2023-02-02T21:23:48.834Z,15.95
2023-02-02T21:28:51.787Z,14.07
2023-02-02T21:31:19.706Z,13.77
2023-02-02T21:33:50.132Z,14.50
2023-02-02T21:36:21.085Z,15.00
2023-02-02T21:38:48.622Z,15.10
2023-02-02T21:41:16.630Z,13.10
2023-02-02T21:43:44.006Z,14.30
2023-02-02T21:46:29.590Z,14.63
2023-02-02T21:48:57.088Z,14.02
2023-02-02T21:51:29.136Z,14.45
2023-02-02T21:53:58.121Z,14.45
2023-02-02T21:56:36.576Z,14.50
2023-02-02T21:59:16.732Z,14.45
2023-02-02T22:01:45.255Z,14.65
2023-02-02T22:04:18.314Z,15.07
2023-02-02T22:06:48.273Z,15.07
2023-02-02T22:09:24.603Z,15.75
2023-02-02T22:11:56.921Z,16.25
2023-02-02T22:14:37.355Z,15.43
2023-02-02T22:17:25.813Z,16.92
2023-02-02T22:20:01.555Z,15.13
2023-02-02T22:22:35.722Z,15.15
2023-02-02T22:25:16.613Z,15.80
2023-02-02T22:27:51.480Z,16.45
2023-02-02T22:30:34.107Z,17.08
2023-02-02T22:33:01.695Z,15.60
2023-02-02T22:35:29.339Z,15.95
2023-02-02T22:37:56.802Z,16.60
2023-02-02T22:40:25.183Z,17.40
2023-02-02T22:42:55.520Z,17.52
2023-02-02T22:45:23.481Z,17.42
2023-02-02T22:47:51.544Z,17.02
2023-02-02T22:50:22.802Z,17.00
2023-02-02T22:52:50.686Z,15.00
2023-02-02T22:55:18.623Z,15.60
2023-02-02T22:57:46.278Z,15.30
2023-02-02T23:00:23.426Z,16.90
2023-02-02T23:02:51.426Z,16.08
2023-02-02T23:05:20.299Z,15.07
2023-02-02T23:07:49.208Z,15.40
2023-02-02T23:10:19.672Z,15.20
2023-02-02T23:12:48.442Z,15.80
2023-02-02T23:17:43.735Z,16.65
2023-02-02T23:20:14.581Z,16.50
2023-02-02T23:22:42.039Z,16.48
2023-02-02T23:25:10.773Z,18.00
2023-02-02T23:27:38.513Z,15.10
2023-02-02T23:30:07.805Z,13.10
2023-02-02T23:32:36.159Z,12.82
2023-02-02T23:35:04.056Z,13.10
2023-02-02T23:37:32.119Z,13.18
2023-02-02T23:39:59.560Z,12.85
2023-02-02T23:42:27.225Z,13.23
2023-02-02T23:44:54.518Z,11.98
2023-02-02T23:47:22.152Z,12.38
2023-02-02T23:49:49.480Z,12.57
2023-02-02T23:52:17.317Z,12.50
2023-02-02T23:54:45.213Z,12.05
2023-02-02T23:57:12.706Z,12.57
2023-02-02T23:59:40.082Z,12.60
